createdAt,value
2023-04-21T00:00:33.849Z,90.33
2023-04-21T00:03:03.669Z,90.54
2023-04-21T00:05:33.481Z,90.48
2023-04-21T00:08:01.878Z,90.50
2023-04-21T00:10:30.543Z,90.31
2023-04-21T00:12:59.123Z,90.40
2023-04-21T00:15:27.358Z,90.62
2023-04-21T00:17:56.225Z,91.07
2023-04-21T00:20:27.076Z,91.36
2023-04-21T00:22:58.885Z,91.64
2023-04-21T00:25:27.393Z,92.08
2023-04-21T00:27:56.195Z,92.67
2023-04-21T00:30:24.741Z,93.23
2023-04-21T00:32:53.207Z,93.76
2023-04-21T00:35:21.596Z,94.44
2023-04-21T00:37:50.468Z,94.87
2023-04-21T00:40:18.877Z,95.46
2023-04-21T00:42:47.143Z,95.66
2023-04-21T00:45:15.834Z,95.83
2023-04-21T00:47:44.193Z,96.14
2023-04-21T00:50:13.050Z,96.13
2023-04-21T00:52:42.430Z,96.15
2023-04-21T00:55:10.866Z,96.50
2023-04-21T00:57:39.208Z,96.49
2023-04-21T01:00:09.112Z,96.97
2023-04-21T01:02:40.064Z,97.10
2023-04-21T01:05:12.255Z,97.44
2023-04-21T01:07:43.408Z,97.96
2023-04-21T01:10:12.003Z,98.08
2023-04-21T01:12:45.413Z,98.42
2023-04-21T01:15:16.435Z,98.90
2023-04-21T01:17:45.697Z,99.10
2023-04-21T01:20:16.168Z,99.11
2023-04-21T01:22:48.031Z,99.26
2023-04-21T01:25:17.821Z,99.41
2023-04-21T01:27:46.409Z,99.54
2023-04-21T01:30:14.785Z,99.57
2023-04-21T01:32:43.247Z,99.40
2023-04-21T01:35:11.580Z,99.40
2023-04-21T01:37:40.548Z,99.56
2023-04-21T01:40:09.495Z,99.66
2023-04-21T01:42:40.401Z,99.77
2023-04-21T01:45:09.880Z,99.90
2023-04-21T01:47:39.241Z,99.90
2023-04-21T01:50:08.882Z,99.87
2023-04-21T01:52:37.991Z,99.90
2023-04-21T01:55:07.505Z,99.96
2023-04-21T01:57:36.470Z,100.00
2023-04-21T02:00:06.212Z,100.00
2023-04-21T02:02:45.075Z,100.00
2023-04-21T02:05:17.989Z,100.00
2023-04-21T02:07:46.777Z,100.00
2023-04-21T02:10:16.412Z,100.00
2023-04-21T02:12:45.994Z,100.00
2023-04-21T02:15:14.326Z,100.00
2023-04-21T02:17:45.098Z,100.00
2023-04-21T02:20:13.664Z,100.00
2023-04-21T02:22:42.022Z,100.00
2023-04-21T02:25:10.347Z,100.00
2023-04-21T02:27:40.572Z,100.00
2023-04-21T02:30:09.656Z,100.00
2023-04-21T02:32:38.724Z,100.00
2023-04-21T02:35:07.651Z,100.00
2023-04-21T02:37:36.639Z,100.00
2023-04-21T02:40:06.704Z,100.00
2023-04-21T02:42:35.661Z,100.00
2023-04-21T02:45:04.322Z,100.00
2023-04-21T02:47:33.175Z,100.00
2023-04-21T02:50:01.490Z,100.00
2023-04-21T02:52:29.976Z,100.00
2023-04-21T02:54:58.258Z,100.00
2023-04-21T02:57:27.140Z,100.00
2023-04-21T02:59:55.571Z,100.00
2023-04-21T03:02:24.435Z,100.00
2023-04-21T03:04:53.499Z,100.00
2023-04-21T03:07:21.880Z,100.00
2023-04-21T03:09:50.238Z,100.00
2023-04-21T03:12:18.873Z,100.00
2023-04-21T03:14:47.838Z,100.00
2023-04-21T03:17:16.213Z,100.00
2023-04-21T03:19:44.488Z,100.00
2023-04-21T03:22:13.167Z,100.00
2023-04-21T03:24:41.454Z,100.00
2023-04-21T03:27:11.014Z,100.00
2023-04-21T03:29:39.799Z,100.00
2023-04-21T03:32:08.218Z,100.00
2023-04-21T03:34:36.990Z,100.00
2023-04-21T03:37:06.444Z,100.00
2023-04-21T03:39:34.989Z,100.00
2023-04-21T03:42:05.176Z,100.00
2023-04-21T03:44:33.355Z,100.00
2023-04-21T03:47:05.979Z,100.00
2023-04-21T03:49:35.193Z,100.00
2023-04-21T03:52:03.852Z,100.00
2023-04-21T03:54:32.517Z,100.00
2023-04-21T03:57:00.923Z,100.00
2023-04-21T03:59:29.505Z,100.00
2023-04-21T04:01:57.844Z,100.00
2023-04-21T04:04:26.911Z,100.00
2023-04-21T04:06:55.599Z,100.00
2023-04-21T04:09:27.533Z,100.00
2023-04-21T04:11:56.158Z,100.00
2023-04-21T04:14:24.371Z,100.00
